sensor_id;sensor_type;location;lat;lon;timestamp;P1;durP1;ratioP1;P2;durP2;ratioP2
3708;SDS011;1870;53.996;10.784;2023-04-24T00:00:16;6.07;;;4.40;;
3708;SDS011;1870;53.996;10.784;2023-04-24T00:02:43;10.07;;;4.50;;
3708;SDS011;1870;53.996;10.784;2023-04-24T00:05:16;5.00;;;4.40;;
3708;SDS011;1870;53.996;10.784;2023-04-24T00:07:43;5.77;;;4.73;;
3708;SDS011;1870;53.996;10.784;2023-04-24T00:10:09;5.53;;;4.33;;
3708;SDS011;1870;53.996;10.784;2023-04-24T00:12:35;5.53;;;4.10;;
3708;SDS011;1870;53.996;10.784;2023-04-24T00:15:02;12.13;;;4.43;;
3708;SDS011;1870;53.996;10.784;2023-04-24T00:17:28;7.23;;;4.53;;
3708;SDS011;1870;53.996;10.784;2023-04-24T00:19:54;5.77;;;3.93;;
3708;SDS011;1870;53.996;10.784;2023-04-24T00:22:26;5.00;;;4.40;;
3708;SDS011;1870;53.996;10.784;2023-04-24T00:24:52;5.50;;;4.77;;
3708;SDS011;1870;53.996;10.784;2023-04-24T00:27:18;6.73;;;5.10;;
3708;SDS011;1870;53.996;10.784;2023-04-24T00:29:44;5.63;;;4.13;;
3708;SDS011;1870;53.996;10.784;2023-04-24T00:32:10;5.40;;;4.33;;
3708;SDS011;1870;53.996;10.784;2023-04-24T00:34:36;5.40;;;4.90;;
3708;SDS011;1870;53.996;10.784;2023-04-24T00:37:02;4.60;;;4.10;;
3708;SDS011;1870;53.996;10.784;2023-04-24T00:39:29;5.47;;;3.63;;
3708;SDS011;1870;53.996;10.784;2023-04-24T00:41:55;3.93;;;3.50;;
3708;SDS011;1870;53.996;10.784;2023-04-24T00:44:22;4.40;;;3.73;;
3708;SDS011;1870;53.996;10.784;2023-04-24T00:46:51;4.37;;;3.93;;
3708;SDS011;1870;53.996;10.784;2023-04-24T00:49:19;6.10;;;4.47;;
3708;SDS011;1870;53.996;10.784;2023-04-24T00:51:46;6.90;;;4.30;;
3708;SDS011;1870;53.996;10.784;2023-04-24T00:54:15;8.07;;;4.80;;
3708;SDS011;1870;53.996;10.784;2023-04-24T00:56:41;7.13;;;4.83;;
3708;SDS011;1870;53.996;10.784;2023-04-24T00:59:08;5.37;;;4.30;;
3708;SDS011;1870;53.996;10.784;2023-04-24T01:01:37;6.67;;;4.13;;
3708;SDS011;1870;53.996;10.784;2023-04-24T01:04:07;6.40;;;4.40;;
3708;SDS011;1870;53.996;10.784;2023-04-24T01:06:33;8.80;;;4.83;;
3708;SDS011;1870;53.996;10.784;2023-04-24T01:08:59;6.33;;;5.20;;
3708;SDS011;1870;53.996;10.784;2023-04-24T01:11:26;7.20;;;5.67;;
3708;SDS011;1870;53.996;10.784;2023-04-24T01:13:52;6.90;;;5.47;;
3708;SDS011;1870;53.996;10.784;2023-04-24T01:16:18;5.63;;;4.70;;
3708;SDS011;1870;53.996;10.784;2023-04-24T01:18:46;6.27;;;4.97;;
3708;SDS011;1870;53.996;10.784;2023-04-24T01:21:13;7.80;;;5.53;;
3708;SDS011;1870;53.996;10.784;2023-04-24T01:23:39;7.13;;;5.50;;
3708;SDS011;1870;53.996;10.784;2023-04-24T01:26:05;9.47;;;4.70;;
3708;SDS011;1870;53.996;10.784;2023-04-24T01:28:31;7.83;;;5.23;;
3708;SDS011;1870;53.996;10.784;2023-04-24T01:30:57;7.07;;;6.00;;
3708;SDS011;1870;53.996;10.784;2023-04-24T01:33:24;6.80;;;5.43;;
3708;SDS011;1870;53.996;10.784;2023-04-24T01:35:50;12.20;;;11.20;;
3708;SDS011;1870;53.996;10.784;2023-04-24T01:38:16;11.73;;;9.97;;
3708;SDS011;1870;53.996;10.784;2023-04-24T01:40:43;8.53;;;7.27;;
3708;SDS011;1870;53.996;10.784;2023-04-24T01:43:09;7.27;;;6.57;;
3708;SDS011;1870;53.996;10.784;2023-04-24T01:45:35;8.70;;;6.10;;
3708;SDS011;1870;53.996;10.784;2023-04-24T01:48:01;5.57;;;5.07;;
3708;SDS011;1870;53.996;10.784;2023-04-24T01:50:27;6.40;;;5.20;;
3708;SDS011;1870;53.996;10.784;2023-04-24T01:52:53;6.47;;;5.70;;
3708;SDS011;1870;53.996;10.784;2023-04-24T01:55:19;8.63;;;5.97;;
3708;SDS011;1870;53.996;10.784;2023-04-24T01:57:45;7.10;;;5.77;;
3708;SDS011;1870;53.996;10.784;2023-04-24T02:00:11;7.23;;;5.33;;
3708;SDS011;1870;53.996;10.784;2023-04-24T02:02:39;7.40;;;5.27;;
3708;SDS011;1870;53.996;10.784;2023-04-24T02:05:06;6.73;;;5.63;;
3708;SDS011;1870;53.996;10.784;2023-04-24T02:07:32;7.80;;;5.47;;
3708;SDS011;1870;53.996;10.784;2023-04-24T02:09:58;6.67;;;5.03;;
3708;SDS011;1870;53.996;10.784;2023-04-24T02:12:27;7.23;;;5.70;;
3708;SDS011;1870;53.996;10.784;2023-04-24T02:14:53;8.20;;;5.60;;
3708;SDS011;1870;53.996;10.784;2023-04-24T02:17:19;7.80;;;6.30;;
3708;SDS011;1870;53.996;10.784;2023-04-24T02:19:45;13.57;;;6.13;;
3708;SDS011;1870;53.996;10.784;2023-04-24T02:22:11;8.50;;;6.60;;
3708;SDS011;1870;53.996;10.784;2023-04-24T02:24:38;7.43;;;5.77;;
3708;SDS011;1870;53.996;10.784;2023-04-24T02:27:04;7.47;;;6.10;;
3708;SDS011;1870;53.996;10.784;2023-04-24T02:29:30;6.17;;;5.10;;
3708;SDS011;1870;53.996;10.784;2023-04-24T02:31:56;7.13;;;6.00;;
3708;SDS011;1870;53.996;10.784;2023-04-24T02:34:22;9.53;;;5.97;;
3708;SDS011;1870;53.996;10.784;2023-04-24T02:36:48;8.57;;;5.70;;
3708;SDS011;1870;53.996;10.784;2023-04-24T02:39:15;7.60;;;5.30;;
3708;SDS011;1870;53.996;10.784;2023-04-24T02:41:41;6.90;;;5.17;;
3708;SDS011;1870;53.996;10.784;2023-04-24T02:44:08;9.30;;;6.30;;
3708;SDS011;1870;53.996;10.784;2023-04-24T02:46:34;7.20;;;5.80;;
3708;SDS011;1870;53.996;10.784;2023-04-24T02:49:00;6.57;;;5.93;;
3708;SDS011;1870;53.996;10.784;2023-04-24T02:51:26;8.93;;;5.97;;
3708;SDS011;1870;53.996;10.784;2023-04-24T02:53:52;8.30;;;5.90;;
3708;SDS011;1870;53.996;10.784;2023-04-24T02:56:21;6.70;;;5.30;;
3708;SDS011;1870;53.996;10.784;2023-04-24T02:58:47;7.40;;;5.60;;
3708;SDS011;1870;53.996;10.784;2023-04-24T03:01:13;8.97;;;6.30;;
3708;SDS011;1870;53.996;10.784;2023-04-24T03:03:39;7.37;;;5.87;;
3708;SDS011;1870;53.996;10.784;2023-04-24T03:06:05;7.43;;;5.90;;
3708;SDS011;1870;53.996;10.784;2023-04-24T03:08:33;8.77;;;6.20;;
3708;SDS011;1870;53.996;10.784;2023-04-24T03:10:59;7.93;;;6.30;;
3708;SDS011;1870;53.996;10.784;2023-04-24T03:13:25;7.30;;;5.90;;
3708;SDS011;1870;53.996;10.784;2023-04-24T03:15:51;8.30;;;6.40;;
3708;SDS011;1870;53.996;10.784;2023-04-24T03:18:17;9.23;;;6.03;;
3708;SDS011;1870;53.996;10.784;2023-04-24T03:20:45;7.70;;;5.37;;
3708;SDS011;1870;53.996;10.784;2023-04-24T03:23:12;7.00;;;5.73;;
3708;SDS011;1870;53.996;10.784;2023-04-24T03:25:38;6.40;;;5.70;;
3708;SDS011;1870;53.996;10.784;2023-04-24T03:28:04;6.70;;;5.87;;
3708;SDS011;1870;53.996;10.784;2023-04-24T03:30:30;8.20;;;6.17;;
3708;SDS011;1870;53.996;10.784;2023-04-24T03:32:56;6.00;;;5.23;;
3708;SDS011;1870;53.996;10.784;2023-04-24T03:35:22;9.57;;;5.67;;
3708;SDS011;1870;53.996;10.784;2023-04-24T03:37:48;7.93;;;6.10;;
3708;SDS011;1870;53.996;10.784;2023-04-24T03:40:14;8.87;;;6.47;;
3708;SDS011;1870;53.996;10.784;2023-04-24T03:42:40;8.70;;;6.70;;
3708;SDS011;1870;53.996;10.784;2023-04-24T03:45:06;7.10;;;6.40;;
3708;SDS011;1870;53.996;10.784;2023-04-24T03:47:33;8.80;;;5.80;;
3708;SDS011;1870;53.996;10.784;2023-04-24T03:49:59;8.67;;;6.57;;
3708;SDS011;1870;53.996;10.784;2023-04-24T03:52:28;10.87;;;5.70;;
3708;SDS011;1870;53.996;10.784;2023-04-24T03:54:54;9.10;;;6.50;;
3708;SDS011;1870;53.996;10.784;2023-04-24T03:57:20;6.00;;;5.10;;
3708;SDS011;1870;53.996;10.784;2023-04-24T03:59:46;6.97;;;5.57;;
3708;SDS011;1870;53.996;10.784;2023-04-24T04:02:13;7.20;;;5.70;;
3708;SDS011;1870;53.996;10.784;2023-04-24T04:04:38;6.20;;;5.60;;
3708;SDS011;1870;53.996;10.784;2023-04-24T04:07:05;7.50;;;6.00;;
3708;SDS011;1870;53.996;10.784;2023-04-24T04:09:31;8.73;;;5.83;;
3708;SDS011;1870;53.996;10.784;2023-04-24T04:11:58;6.50;;;5.10;;
3708;SDS011;1870;53.996;10.784;2023-04-24T04:14:24;7.97;;;5.10;;
3708;SDS011;1870;53.996;10.784;2023-04-24T04:16:50;7.40;;;5.40;;
3708;SDS011;1870;53.996;10.784;2023-04-24T04:19:16;7.90;;;5.10;;
3708;SDS011;1870;53.996;10.784;2023-04-24T04:21:42;6.30;;;4.77;;
3708;SDS011;1870;53.996;10.784;2023-04-24T04:24:08;6.00;;;5.07;;
3708;SDS011;1870;53.996;10.784;2023-04-24T04:26:34;7.07;;;5.40;;
3708;SDS011;1870;53.996;10.784;2023-04-24T04:29:04;6.83;;;4.80;;
3708;SDS011;1870;53.996;10.784;2023-04-24T04:31:31;7.57;;;4.93;;
3708;SDS011;1870;53.996;10.784;2023-04-24T04:33:57;7.10;;;4.67;;
3708;SDS011;1870;53.996;10.784;2023-04-24T04:36:23;5.03;;;4.50;;
3708;SDS011;1870;53.996;10.784;2023-04-24T04:38:50;5.57;;;4.27;;
3708;SDS011;1870;53.996;10.784;2023-04-24T04:41:16;7.30;;;4.70;;
3708;SDS011;1870;53.996;10.784;2023-04-24T04:43:43;5.47;;;4.47;;
3708;SDS011;1870;53.996;10.784;2023-04-24T04:46:09;5.67;;;4.80;;
3708;SDS011;1870;53.996;10.784;2023-04-24T04:48:36;5.23;;;3.53;;
3708;SDS011;1870;53.996;10.784;2023-04-24T04:51:03;5.00;;;4.50;;
3708;SDS011;1870;53.996;10.784;2023-04-24T04:53:29;4.90;;;3.53;;
3708;SDS011;1870;53.996;10.784;2023-04-24T04:55:55;4.23;;;3.43;;
3708;SDS011;1870;53.996;10.784;2023-04-24T04:58:21;4.87;;;3.73;;
3708;SDS011;1870;53.996;10.784;2023-04-24T05:00:47;3.93;;;3.40;;
3708;SDS011;1870;53.996;10.784;2023-04-24T05:03:13;5.40;;;3.50;;
3708;SDS011;1870;53.996;10.784;2023-04-24T05:05:39;7.27;;;3.20;;
3708;SDS011;1870;53.996;10.784;2023-04-24T05:08:06;5.33;;;3.53;;
3708;SDS011;1870;53.996;10.784;2023-04-24T05:10:32;4.63;;;4.23;;
3708;SDS011;1870;53.996;10.784;2023-04-24T05:12:59;4.73;;;3.40;;
3708;SDS011;1870;53.996;10.784;2023-04-24T05:15:25;6.57;;;4.13;;
3708;SDS011;1870;53.996;10.784;2023-04-24T05:17:51;3.80;;;3.40;;
3708;SDS011;1870;53.996;10.784;2023-04-24T05:20:18;4.13;;;3.40;;
3708;SDS011;1870;53.996;10.784;2023-04-24T05:22:46;6.83;;;5.10;;
3708;SDS011;1870;53.996;10.784;2023-04-24T05:25:12;4.10;;;3.67;;
3708;SDS011;1870;53.996;10.784;2023-04-24T05:27:38;5.10;;;3.90;;
3708;SDS011;1870;53.996;10.784;2023-04-24T05:30:05;5.70;;;4.13;;
3708;SDS011;1870;53.996;10.784;2023-04-24T05:32:31;4.20;;;3.80;;
3708;SDS011;1870;53.996;10.784;2023-04-24T05:34:57;6.13;;;3.23;;
3708;SDS011;1870;53.996;10.784;2023-04-24T05:37:23;7.80;;;4.53;;
3708;SDS011;1870;53.996;10.784;2023-04-24T05:39:49;4.20;;;3.77;;
3708;SDS011;1870;53.996;10.784;2023-04-24T05:42:18;5.47;;;4.30;;
3708;SDS011;1870;53.996;10.784;2023-04-24T05:44:44;4.33;;;3.73;;
3708;SDS011;1870;53.996;10.784;2023-04-24T05:47:10;3.60;;;3.07;;
3708;SDS011;1870;53.996;10.784;2023-04-24T05:49:36;3.40;;;2.90;;
3708;SDS011;1870;53.996;10.784;2023-04-24T05:52:02;3.70;;;3.40;;
3708;SDS011;1870;53.996;10.784;2023-04-24T05:54:29;3.43;;;2.70;;
3708;SDS011;1870;53.996;10.784;2023-04-24T05:56:55;3.97;;;3.30;;
3708;SDS011;1870;53.996;10.784;2023-04-24T05:59:21;4.00;;;2.67;;
3708;SDS011;1870;53.996;10.784;2023-04-24T06:01:47;3.03;;;2.57;;
3708;SDS011;1870;53.996;10.784;2023-04-24T06:04:13;3.00;;;2.70;;
3708;SDS011;1870;53.996;10.784;2023-04-24T06:06:39;3.20;;;2.30;;
3708;SDS011;1870;53.996;10.784;2023-04-24T06:09:05;10.30;;;8.60;;
3708;SDS011;1870;53.996;10.784;2023-04-24T06:11:31;2.57;;;2.30;;
3708;SDS011;1870;53.996;10.784;2023-04-24T06:13:57;3.07;;;2.77;;
3708;SDS011;1870;53.996;10.784;2023-04-24T06:16:23;2.20;;;2.00;;
3708;SDS011;1870;53.996;10.784;2023-04-24T06:18:49;5.40;;;2.57;;
3708;SDS011;1870;53.996;10.784;2023-04-24T06:21:16;2.53;;;2.33;;
3708;SDS011;1870;53.996;10.784;2023-04-24T06:23:42;3.00;;;2.57;;
3708;SDS011;1870;53.996;10.784;2023-04-24T06:26:08;3.13;;;2.13;;
3708;SDS011;1870;53.996;10.784;2023-04-24T06:28:34;2.20;;;2.00;;
3708;SDS011;1870;53.996;10.784;2023-04-24T06:31:00;4.88;;;2.88;;
3708;SDS011;1870;53.996;10.784;2023-04-24T06:33:26;2.73;;;2.53;;
3708;SDS011;1870;53.996;10.784;2023-04-24T06:35:53;2.90;;;2.40;;
3708;SDS011;1870;53.996;10.784;2023-04-24T06:38:19;2.67;;;2.47;;
3708;SDS011;1870;53.996;10.784;2023-04-24T06:40:45;2.30;;;2.10;;
3708;SDS011;1870;53.996;10.784;2023-04-24T06:43:11;2.43;;;2.23;;
3708;SDS011;1870;53.996;10.784;2023-04-24T06:45:38;2.60;;;2.40;;
3708;SDS011;1870;53.996;10.784;2023-04-24T06:48:04;2.60;;;2.40;;
3708;SDS011;1870;53.996;10.784;2023-04-24T06:50:30;2.40;;;1.90;;
3708;SDS011;1870;53.996;10.784;2023-04-24T06:52:56;9.60;;;9.07;;
3708;SDS011;1870;53.996;10.784;2023-04-24T06:55:22;2.30;;;2.10;;
3708;SDS011;1870;53.996;10.784;2023-04-24T06:57:48;2.23;;;2.07;;
3708;SDS011;1870;53.996;10.784;2023-04-24T07:00:14;2.70;;;2.50;;
3708;SDS011;1870;53.996;10.784;2023-04-24T07:02:41;2.70;;;2.50;;
3708;SDS011;1870;53.996;10.784;2023-04-24T07:05:07;4.35;;;2.90;;
3708;SDS011;1870;53.996;10.784;2023-04-24T07:07:33;3.10;;;2.57;;
3708;SDS011;1870;53.996;10.784;2023-04-24T07:09:59;3.70;;;3.07;;
3708;SDS011;1870;53.996;10.784;2023-04-24T07:12:25;2.90;;;2.70;;
3708;SDS011;1870;53.996;10.784;2023-04-24T07:14:51;3.43;;;3.20;;
3708;SDS011;1870;53.996;10.784;2023-04-24T07:17:17;4.30;;;3.17;;
3708;SDS011;1870;53.996;10.784;2023-04-24T07:19:43;4.70;;;3.53;;
3708;SDS011;1870;53.996;10.784;2023-04-24T07:22:10;5.20;;;2.90;;
3708;SDS011;1870;53.996;10.784;2023-04-24T07:24:41;3.30;;;3.00;;
3708;SDS011;1870;53.996;10.784;2023-04-24T07:27:08;2.60;;;2.40;;
3708;SDS011;1870;53.996;10.784;2023-04-24T07:29:34;3.77;;;2.70;;
3708;SDS011;1870;53.996;10.784;2023-04-24T07:32:00;2.95;;;2.70;;
3708;SDS011;1870;53.996;10.784;2023-04-24T07:34:27;2.77;;;2.57;;
3708;SDS011;1870;53.996;10.784;2023-04-24T07:36:53;3.10;;;2.90;;
3708;SDS011;1870;53.996;10.784;2023-04-24T07:39:19;3.90;;;3.23;;
3708;SDS011;1870;53.996;10.784;2023-04-24T07:41:45;5.80;;;3.37;;
3708;SDS011;1870;53.996;10.784;2023-04-24T07:44:11;4.00;;;3.37;;
3708;SDS011;1870;53.996;10.784;2023-04-24T07:46:37;3.70;;;3.40;;
3708;SDS011;1870;53.996;10.784;2023-04-24T07:49:05;3.27;;;3.07;;
3708;SDS011;1870;53.996;10.784;2023-04-24T07:51:31;3.70;;;3.50;;
3708;SDS011;1870;53.996;10.784;2023-04-24T07:54:03;4.67;;;4.30;;
3708;SDS011;1870;53.996;10.784;2023-04-24T07:56:29;3.60;;;3.30;;
3708;SDS011;1870;53.996;10.784;2023-04-24T07:58:56;3.53;;;3.20;;
3708;SDS011;1870;53.996;10.784;2023-04-24T08:01:22;3.53;;;3.30;;
3708;SDS011;1870;53.996;10.784;2023-04-24T08:03:48;3.17;;;2.97;;
3708;SDS011;1870;53.996;10.784;2023-04-24T08:06:14;4.03;;;3.73;;
3708;SDS011;1870;53.996;10.784;2023-04-24T08:08:40;3.67;;;3.47;;
3708;SDS011;1870;53.996;10.784;2023-04-24T08:11:06;3.97;;;3.77;;
3708;SDS011;1870;53.996;10.784;2023-04-24T08:13:32;4.13;;;3.83;;
3708;SDS011;1870;53.996;10.784;2023-04-24T08:15:58;3.57;;;3.37;;
3708;SDS011;1870;53.996;10.784;2023-04-24T08:18:24;3.50;;;3.30;;
3708;SDS011;1870;53.996;10.784;2023-04-24T08:20:51;3.73;;;3.53;;
3708;SDS011;1870;53.996;10.784;2023-04-24T08:23:17;4.30;;;4.00;;
3708;SDS011;1870;53.996;10.784;2023-04-24T08:25:43;3.60;;;3.50;;
3708;SDS011;1870;53.996;10.784;2023-04-24T08:28:09;3.30;;;3.10;;
3708;SDS011;1870;53.996;10.784;2023-04-24T08:30:35;3.80;;;3.60;;
3708;SDS011;1870;53.996;10.784;2023-04-24T08:33:03;3.83;;;3.50;;
3708;SDS011;1870;53.996;10.784;2023-04-24T08:35:29;3.53;;;3.23;;
3708;SDS011;1870;53.996;10.784;2023-04-24T08:37:55;2.93;;;2.83;;
3708;SDS011;1870;53.996;10.784;2023-04-24T08:40:22;3.30;;;3.10;;
3708;SDS011;1870;53.996;10.784;2023-04-24T08:42:53;3.50;;;3.30;;
3708;SDS011;1870;53.996;10.784;2023-04-24T08:45:21;4.10;;;3.90;;
3708;SDS011;1870;53.996;10.784;2023-04-24T08:47:47;4.10;;;3.90;;
3708;SDS011;1870;53.996;10.784;2023-04-24T08:50:14;3.73;;;3.53;;
3708;SDS011;1870;53.996;10.784;2023-04-24T08:52:43;3.97;;;3.77;;
3708;SDS011;1870;53.996;10.784;2023-04-24T08:55:09;3.77;;;3.57;;
3708;SDS011;1870;53.996;10.784;2023-04-24T08:57:36;4.73;;;4.40;;
3708;SDS011;1870;53.996;10.784;2023-04-24T09:00:05;3.80;;;3.60;;
3708;SDS011;1870;53.996;10.784;2023-04-24T09:02:31;4.47;;;4.17;;
3708;SDS011;1870;53.996;10.784;2023-04-24T09:05:00;4.00;;;3.80;;
3708;SDS011;1870;53.996;10.784;2023-04-24T09:07:28;4.60;;;4.30;;
3708;SDS011;1870;53.996;10.784;2023-04-24T09:09:57;4.13;;;3.90;;
3708;SDS011;1870;53.996;10.784;2023-04-24T09:12:23;3.70;;;3.50;;
3708;SDS011;1870;53.996;10.784;2023-04-24T09:14:49;4.50;;;4.20;;
3708;SDS011;1870;53.996;10.784;2023-04-24T09:17:16;3.63;;;3.43;;
3708;SDS011;1870;53.996;10.784;2023-04-24T09:19:42;2.73;;;2.63;;
3708;SDS011;1870;53.996;10.784;2023-04-24T09:22:08;3.63;;;3.43;;
3708;SDS011;1870;53.996;10.784;2023-04-24T09:24:36;4.27;;;4.07;;
3708;SDS011;1870;53.996;10.784;2023-04-24T09:27:02;4.30;;;4.00;;
3708;SDS011;1870;53.996;10.784;2023-04-24T09:29:32;4.77;;;4.10;;
3708;SDS011;1870;53.996;10.784;2023-04-24T09:31:58;7.83;;;5.00;;
3708;SDS011;1870;53.996;10.784;2023-04-24T09:34:24;4.57;;;4.27;;
3708;SDS011;1870;53.996;10.784;2023-04-24T09:36:51;4.60;;;4.40;;
3708;SDS011;1870;53.996;10.784;2023-04-24T09:39:17;4.13;;;3.90;;
3708;SDS011;1870;53.996;10.784;2023-04-24T09:41:47;4.27;;;4.07;;
3708;SDS011;1870;53.996;10.784;2023-04-24T09:44:23;5.10;;;4.80;;
3708;SDS011;1870;53.996;10.784;2023-04-24T09:49:30;4.57;;;4.37;;
3708;SDS011;1870;53.996;10.784;2023-04-24T09:52:08;4.17;;;3.97;;
3708;SDS011;1870;53.996;10.784;2023-04-24T09:54:35;4.97;;;4.67;;
3708;SDS011;1870;53.996;10.784;2023-04-24T09:57:01;5.50;;;5.10;;
3708;SDS011;1870;53.996;10.784;2023-04-24T09:59:28;5.60;;;5.20;;
3708;SDS011;1870;53.996;10.784;2023-04-24T10:01:54;5.40;;;5.00;;
3708;SDS011;1870;53.996;10.784;2023-04-24T10:04:27;5.60;;;5.20;;
3708;SDS011;1870;53.996;10.784;2023-04-24T10:06:56;5.33;;;5.03;;
3708;SDS011;1870;53.996;10.784;2023-04-24T10:09:23;4.87;;;4.57;;
3708;SDS011;1870;53.996;10.784;2023-04-24T10:11:52;5.03;;;4.73;;
3708;SDS011;1870;53.996;10.784;2023-04-24T10:14:20;4.90;;;4.60;;
3708;SDS011;1870;53.996;10.784;2023-04-24T10:16:47;6.13;;;5.67;;
3708;SDS011;1870;53.996;10.784;2023-04-24T10:19:15;5.60;;;5.27;;
3708;SDS011;1870;53.996;10.784;2023-04-24T10:21:43;5.87;;;5.37;;
3708;SDS011;1870;53.996;10.784;2023-04-24T10:24:15;6.47;;;5.97;;
3708;SDS011;1870;53.996;10.784;2023-04-24T10:26:45;7.10;;;6.60;;
3708;SDS011;1870;53.996;10.784;2023-04-24T10:29:13;7.83;;;7.13;;
3708;SDS011;1870;53.996;10.784;2023-04-24T10:31:40;7.60;;;6.90;;
3708;SDS011;1870;53.996;10.784;2023-04-24T10:34:07;6.57;;;6.07;;
3708;SDS011;1870;53.996;10.784;2023-04-24T10:36:34;7.27;;;6.57;;
3708;SDS011;1870;53.996;10.784;2023-04-24T10:39:05;6.40;;;5.93;;
3708;SDS011;1870;53.996;10.784;2023-04-24T10:41:39;6.60;;;6.00;;
3708;SDS011;1870;53.996;10.784;2023-04-24T10:44:08;6.40;;;5.90;;
3708;SDS011;1870;53.996;10.784;2023-04-24T10:46:39;5.73;;;5.40;;
3708;SDS011;1870;53.996;10.784;2023-04-24T10:49:08;5.90;;;5.60;;
3708;SDS011;1870;53.996;10.784;2023-04-24T10:54:26;5.80;;;5.40;;
3708;SDS011;1870;53.996;10.784;2023-04-24T10:59:43;6.70;;;6.17;;
3708;SDS011;1870;53.996;10.784;2023-04-24T11:02:09;5.53;;;5.13;;
3708;SDS011;1870;53.996;10.784;2023-04-24T11:04:35;5.73;;;5.43;;
3708;SDS011;1870;53.996;10.784;2023-04-24T11:07:02;7.20;;;6.70;;
3708;SDS011;1870;53.996;10.784;2023-04-24T11:09:30;8.23;;;7.53;;
3708;SDS011;1870;53.996;10.784;2023-04-24T11:12:03;8.00;;;7.30;;
3708;SDS011;1870;53.996;10.784;2023-04-24T11:14:31;8.50;;;7.90;;
3708;SDS011;1870;53.996;10.784;2023-04-24T11:19:53;7.40;;;7.00;;
3708;SDS011;1870;53.996;10.784;2023-04-24T11:22:26;7.33;;;6.93;;
3708;SDS011;1870;53.996;10.784;2023-04-24T11:24:58;6.70;;;6.30;;
3708;SDS011;1870;53.996;10.784;2023-04-24T11:27:28;7.00;;;6.60;;
3708;SDS011;1870;53.996;10.784;2023-04-24T11:35:01;6.90;;;6.50;;
3708;SDS011;1870;53.996;10.784;2023-04-24T11:37:50;7.30;;;6.80;;
3708;SDS011;1870;53.996;10.784;2023-04-24T11:40:18;8.20;;;7.60;;
3708;SDS011;1870;53.996;10.784;2023-04-24T11:42:46;8.60;;;8.07;;
3708;SDS011;1870;53.996;10.784;2023-04-24T11:45:13;8.30;;;7.67;;
3708;SDS011;1870;53.996;10.784;2023-04-24T11:47:43;9.60;;;9.00;;
3708;SDS011;1870;53.996;10.784;2023-04-24T11:50:10;8.77;;;7.90;;
3708;SDS011;1870;53.996;10.784;2023-04-24T11:52:41;8.93;;;8.23;;
3708;SDS011;1870;53.996;10.784;2023-04-24T11:57:42;8.70;;;7.90;;
3708;SDS011;1870;53.996;10.784;2023-04-24T12:02:46;8.27;;;7.77;;
3708;SDS011;1870;53.996;10.784;2023-04-24T12:05:24;9.00;;;8.40;;
3708;SDS011;1870;53.996;10.784;2023-04-24T12:07:51;10.23;;;9.33;;
3708;SDS011;1870;53.996;10.784;2023-04-24T12:10:21;10.40;;;9.70;;
3708;SDS011;1870;53.996;10.784;2023-04-24T12:12:48;10.97;;;8.70;;
3708;SDS011;1870;53.996;10.784;2023-04-24T12:15:16;9.00;;;8.20;;
3708;SDS011;1870;53.996;10.784;2023-04-24T12:17:43;9.77;;;8.80;;
3708;SDS011;1870;53.996;10.784;2023-04-24T12:20:10;9.30;;;8.60;;
3708;SDS011;1870;53.996;10.784;2023-04-24T12:25:32;9.90;;;9.00;;
3708;SDS011;1870;53.996;10.784;2023-04-24T12:30:30;11.73;;;9.70;;
3708;SDS011;1870;53.996;10.784;2023-04-24T12:32:57;9.27;;;8.57;;
3708;SDS011;1870;53.996;10.784;2023-04-24T12:35:24;10.70;;;8.10;;
3708;SDS011;1870;53.996;10.784;2023-04-24T12:37:51;10.70;;;9.80;;
3708;SDS011;1870;53.996;10.784;2023-04-24T12:40:18;11.60;;;9.70;;
3708;SDS011;1870;53.996;10.784;2023-04-24T12:42:50;11.33;;;10.30;;
3708;SDS011;1870;53.996;10.784;2023-04-24T12:45:16;10.90;;;9.90;;
3708;SDS011;1870;53.996;10.784;2023-04-24T12:47:43;12.00;;;10.80;;
3708;SDS011;1870;53.996;10.784;2023-04-24T12:50:10;11.33;;;10.33;;
3708;SDS011;1870;53.996;10.784;2023-04-24T12:52:38;12.27;;;10.57;;
3708;SDS011;1870;53.996;10.784;2023-04-24T12:55:05;13.23;;;11.03;;
3708;SDS011;1870;53.996;10.784;2023-04-24T12:57:35;11.90;;;10.80;;
3708;SDS011;1870;53.996;10.784;2023-04-24T13:00:02;10.20;;;9.30;;
3708;SDS011;1870;53.996;10.784;2023-04-24T13:02:29;11.73;;;10.83;;
3708;SDS011;1870;53.996;10.784;2023-04-24T13:04:56;10.17;;;9.27;;
3708;SDS011;1870;53.996;10.784;2023-04-24T13:07:23;10.07;;;9.27;;
3708;SDS011;1870;53.996;10.784;2023-04-24T13:09:49;9.87;;;8.90;;
3708;SDS011;1870;53.996;10.784;2023-04-24T13:12:16;11.77;;;10.60;;
3708;SDS011;1870;53.996;10.784;2023-04-24T13:14:42;10.07;;;9.23;;
3708;SDS011;1870;53.996;10.784;2023-04-24T13:17:07;11.20;;;10.10;;
3708;SDS011;1870;53.996;10.784;2023-04-24T13:19:37;10.93;;;9.73;;
3708;SDS011;1870;53.996;10.784;2023-04-24T13:22:04;9.27;;;8.50;;
3708;SDS011;1870;53.996;10.784;2023-04-24T13:24:34;9.97;;;9.17;;
3708;SDS011;1870;53.996;10.784;2023-04-24T13:26:59;12.70;;;9.30;;
3708;SDS011;1870;53.996;10.784;2023-04-24T13:29:26;10.80;;;9.80;;
3708;SDS011;1870;53.996;10.784;2023-04-24T13:31:52;9.67;;;8.87;;
3708;SDS011;1870;53.996;10.784;2023-04-24T13:34:24;10.97;;;10.13;;
3708;SDS011;1870;53.996;10.784;2023-04-24T13:36:51;10.87;;;10.00;;
3708;SDS011;1870;53.996;10.784;2023-04-24T13:39:18;9.40;;;8.70;;
3708;SDS011;1870;53.996;10.784;2023-04-24T13:41:43;10.67;;;9.87;;
3708;SDS011;1870;53.996;10.784;2023-04-24T13:44:10;11.80;;;10.70;;
3708;SDS011;1870;53.996;10.784;2023-04-24T13:46:35;10.70;;;9.90;;
3708;SDS011;1870;53.996;10.784;2023-04-24T13:49:02;10.27;;;9.37;;
3708;SDS011;1870;53.996;10.784;2023-04-24T13:51:28;9.50;;;8.90;;
3708;SDS011;1870;53.996;10.784;2023-04-24T13:53:55;9.43;;;8.63;;
3708;SDS011;1870;53.996;10.784;2023-04-24T13:56:21;11.07;;;10.07;;
3708;SDS011;1870;53.996;10.784;2023-04-24T13:58:47;10.57;;;9.67;;
3708;SDS011;1870;53.996;10.784;2023-04-24T14:01:13;10.10;;;9.30;;
3708;SDS011;1870;53.996;10.784;2023-04-24T14:03:40;10.13;;;9.33;;
3708;SDS011;1870;53.996;10.784;2023-04-24T14:06:06;11.57;;;10.57;;
3708;SDS011;1870;53.996;10.784;2023-04-24T14:08:32;11.50;;;10.60;;
3708;SDS011;1870;53.996;10.784;2023-04-24T14:10:58;14.00;;;12.60;;
3708;SDS011;1870;53.996;10.784;2023-04-24T14:13:24;11.23;;;10.33;;
3708;SDS011;1870;53.996;10.784;2023-04-24T14:15:49;10.80;;;10.00;;
3708;SDS011;1870;53.996;10.784;2023-04-24T14:18:17;10.87;;;9.87;;
3708;SDS011;1870;53.996;10.784;2023-04-24T14:20:43;9.80;;;9.00;;
3708;SDS011;1870;53.996;10.784;2023-04-24T14:23:09;9.50;;;8.57;;
3708;SDS011;1870;53.996;10.784;2023-04-24T14:25:35;10.47;;;9.43;;
3708;SDS011;1870;53.996;10.784;2023-04-24T14:28:00;11.00;;;10.00;;
3708;SDS011;1870;53.996;10.784;2023-04-24T14:30:28;10.50;;;9.60;;
3708;SDS011;1870;53.996;10.784;2023-04-24T14:32:54;9.87;;;9.13;;
3708;SDS011;1870;53.996;10.784;2023-04-24T14:35:20;9.23;;;8.63;;
3708;SDS011;1870;53.996;10.784;2023-04-24T14:37:45;9.47;;;8.80;;
3708;SDS011;1870;53.996;10.784;2023-04-24T14:40:13;9.50;;;8.80;;
3708;SDS011;1870;53.996;10.784;2023-04-24T14:42:39;9.83;;;8.07;;
3708;SDS011;1870;53.996;10.784;2023-04-24T14:45:05;9.83;;;8.83;;
3708;SDS011;1870;53.996;10.784;2023-04-24T14:47:32;10.20;;;9.50;;
3708;SDS011;1870;53.996;10.784;2023-04-24T14:49:58;10.00;;;9.27;;
3708;SDS011;1870;53.996;10.784;2023-04-24T14:52:24;10.87;;;10.10;;
3708;SDS011;1870;53.996;10.784;2023-04-24T14:54:50;9.30;;;8.70;;
3708;SDS011;1870;53.996;10.784;2023-04-24T14:57:15;9.27;;;8.73;;
3708;SDS011;1870;53.996;10.784;2023-04-24T14:59:41;9.60;;;8.80;;
3708;SDS011;1870;53.996;10.784;2023-04-24T15:02:09;9.33;;;8.63;;
3708;SDS011;1870;53.996;10.784;2023-04-24T15:04:35;9.73;;;9.03;;
3708;SDS011;1870;53.996;10.784;2023-04-24T15:07:01;10.37;;;9.50;;
3708;SDS011;1870;53.996;10.784;2023-04-24T15:09:27;8.70;;;8.00;;
3708;SDS011;1870;53.996;10.784;2023-04-24T15:11:53;10.27;;;9.03;;
3708;SDS011;1870;53.996;10.784;2023-04-24T15:14:18;9.37;;;8.57;;
3708;SDS011;1870;53.996;10.784;2023-04-24T15:16:44;9.30;;;8.70;;
3708;SDS011;1870;53.996;10.784;2023-04-24T15:19:13;8.90;;;8.30;;
3708;SDS011;1870;53.996;10.784;2023-04-24T15:21:39;8.37;;;7.87;;